Promontory, Utah
Current Conditions -  °F | °C
As of 5:35 PM on Saturday 25 Oct 2014 (Local Time) from KBMC Reporting Station
Clear Clear  
Wind Chill: 22°   Ceiling: Unl
Heat Index: 22°   Visibility: 10mi
Dew Point:   Wind: 5mph
Humidity: 25%   Direction: 200°SSW
Pressure: 29.9"   Gusts: NA
Location:  41.5038°N, 112.48°W
Report Text: KBMC 252335Z AUTO 20004KT 10SM CLR 22/01 A2990 RMK AO1 T02220012
Loading
Personal Weather Stations






























Interactive Weather Map
Tropical Storm Tracking
New forecast layout! Learn more

10-Day Weather Forecast

Advertisements
Track Severe Weather on mobile